Time;durP1;ratioP1;P1;durP2;ratioP2;P2;SDS_P1;SDS_P2;PMS_P1;PMS_P2;Temp;Humidity;BMP_temperature;BMP_pressure;BME280_temperature;BME280_humidity;BME280_pressure;Samples;Min_cycle;Max_cycle;Signal;HPM_P1;HPM_P2
2024/01/25 00:00:18;;;;;;;20.20;2.42;;;6.80;99.40;;;;;;5103436;28;20027;-70
2024/01/25 00:02:44;;;;;;;12.05;4.05;;;;;;;;;;5102695;28;20036;-70
2024/01/25 00:05:10;;;;;;;14.52;2.40;;;6.70;99.90;;;;;;5102457;28;20024;-70
2024/01/25 00:07:45;;;;;;;13.43;2.17;;;6.80;92.20;;;;;;5101279;28;20012;-70
2024/01/25 00:10:11;;;;;;;7.70;2.50;;;6.80;99.90;;;;;;5096601;28;20012;-69
2024/01/25 00:12:37;;;;;;;9.88;1.73;;;6.80;99.70;;;;;;5102840;28;20107;-69
2024/01/25 00:15:03;;;;;;;11.07;2.10;;;6.40;91.60;;;;;;5102566;28;20024;-69
2024/01/25 00:17:29;;;;;;;12.80;2.00;;;;;;;;;;5102585;28;20108;-68
2024/01/25 00:19:54;;;;;;;8.23;2.20;;;6.60;96.70;;;;;;5102457;28;20024;-68
2024/01/25 00:22:20;;;;;;;11.38;2.13;;;6.60;99.30;;;;;;5101362;28;20038;-68
2024/01/25 00:24:46;;;;;;;10.77;2.58;;;6.40;99.60;;;;;;5102352;28;20235;-69
2024/01/25 00:27:11;;;;;;;8.68;1.98;;;6.60;95.70;;;;;;5102149;28;20019;-69
2024/01/25 00:29:37;;;;;;;9.55;2.72;;;6.60;99.40;;;;;;5102310;28;20020;-68
2024/01/25 00:32:03;;;;;;;11.82;2.42;;;6.50;99.40;;;;;;5102025;28;20385;-69
2024/01/25 00:34:29;;;;;;;8.77;2.33;;;6.60;99.00;;;;;;5102282;28;20040;-69
2024/01/25 00:36:55;;;;;;;15.27;2.70;;;;;;;;;;5102326;28;20328;-70
2024/01/25 00:39:21;;;;;;;8.05;1.65;;;;;;;;;;5094215;28;20089;-69
2024/01/25 00:41:51;;;;;;;7.53;1.73;;;6.70;98.30;;;;;;5070247;28;20099;-70
2024/01/25 00:44:17;;;;;;;8.95;1.88;;;6.70;97.60;;;;;;5061781;28;20021;-69
2024/01/25 00:46:45;;;;;;;10.90;2.00;;;6.60;97.60;;;;;;5061386;28;20308;-69
2024/01/25 00:49:13;;;;;;;17.40;2.85;;;6.80;97.30;;;;;;5061410;28;20088;-69
2024/01/25 00:51:45;;;;;;;9.90;1.77;;;6.80;97.30;;;;;;5061252;28;20313;-69
2024/01/25 00:54:11;;;;;;;15.60;2.25;;;6.70;95.40;;;;;;5076392;28;20027;-68
2024/01/25 00:56:37;;;;;;;10.82;2.38;;;6.70;96.50;;;;;;5101402;28;20020;-68
2024/01/25 00:59:03;;;;;;;10.57;2.10;;;6.70;96.90;;;;;;5101506;28;20016;-68
2024/01/25 01:01:29;;;;;;;12.80;2.53;;;6.70;95.70;;;;;;5101574;28;20108;-68
2024/01/25 01:03:57;;;;;;;11.43;2.45;;;6.70;86.10;;;;;;5101774;28;20125;-68
2024/01/25 01:06:23;;;;;;;16.92;4.03;;;;;;;;;;5101630;28;20074;-68
2024/01/25 01:08:49;;;;;;;11.75;2.17;;;6.60;96.60;;;;;;5101477;28;20026;-68
2024/01/25 01:11:15;;;;;;;7.20;2.13;;;;;;;;;;5102010;28;20051;-68
2024/01/25 01:13:41;;;;;;;9.60;2.33;;;6.60;95.30;;;;;;5101402;28;20031;-68
2024/01/25 01:16:07;;;;;;;12.98;2.13;;;6.60;96.70;;;;;;5101414;28;20087;-68
2024/01/25 01:18:32;;;;;;;9.38;2.53;;;6.50;91.00;;;;;;5101506;28;20016;-68
2024/01/25 01:20:58;;;;;;;12.57;2.33;;;6.40;96.90;;;;;;5101372;28;20024;-69
2024/01/25 01:23:24;;;;;;;11.15;2.78;;;6.50;97.10;;;;;;5101571;28;20016;-69
2024/01/25 01:25:49;;;;;;;9.00;1.73;;;6.60;97.40;;;;;;5101350;28;20308;-69
2024/01/25 01:28:15;;;;;;;14.15;1.75;;;6.40;96.00;;;;;;5101108;28;20040;-69
2024/01/25 01:30:41;;;;;;;10.98;2.42;;;;;;;;;;5100907;28;20050;-69
2024/01/25 01:33:10;;;;;;;11.63;2.17;;;6.30;97.60;;;;;;5100960;28;20055;-69
2024/01/25 01:35:37;;;;;;;11.07;2.10;;;;;;;;;;5101356;28;20091;-69
2024/01/25 01:38:03;;;;;;;12.05;2.80;;;;;;;;;;5100966;28;20024;-69
2024/01/25 01:40:29;;;;;;;9.65;2.17;;;6.30;97.70;;;;;;5101100;28;20318;-69
2024/01/25 01:43:01;;;;;;;11.38;1.70;;;6.30;88.90;;;;;;5101009;28;20020;-69
2024/01/25 01:45:27;;;;;;;10.30;1.65;;;6.30;97.80;;;;;;5101125;28;20087;-69
2024/01/25 01:47:55;;;;;;;11.52;2.65;;;6.10;94.30;;;;;;5101206;28;20054;-69
2024/01/25 01:50:22;;;;;;;10.82;1.88;;;;;;;;;;5101008;28;20095;-69
2024/01/25 01:52:50;;;;;;;11.55;2.67;;;6.10;98.70;;;;;;5100925;28;20051;-69
2024/01/25 01:55:17;;;;;;;14.43;3.70;;;5.90;99.00;;;;;;5101257;28;20087;-69
2024/01/25 01:57:45;;;;;;;15.30;3.70;;;5.90;91.00;;;;;;5101332;28;20024;-70
2024/01/25 02:00:14;;;;;;;12.20;2.90;;;6.00;99.30;;;;;;5101120;28;20073;-69
2024/01/25 02:02:40;;;;;;;20.60;3.38;;;6.00;99.30;;;;;;5101205;28;20056;-69
2024/01/25 02:05:06;;;;;;;13.55;2.38;;;6.10;97.30;;;;;;5101028;28;20204;-69
2024/01/25 02:07:32;;;;;;;9.40;2.10;;;;;;;;;;5101133;28;20319;-69
2024/01/25 02:09:58;;;;;;;11.90;2.55;;;;;;;;;;5100682;28;20073;-69
2024/01/25 02:12:23;;;;;;;8.85;3.50;;;6.30;98.90;;;;;;5100957;28;20069;-69
2024/01/25 02:14:49;;;;;;;12.50;2.78;;;6.20;98.80;;;;;;5100840;28;20016;-69
2024/01/25 02:17:16;;;;;;;9.10;1.60;;;6.30;98.30;;;;;;5100819;28;20247;-69
2024/01/25 02:19:42;;;;;;;14.10;2.80;;;;;;;;;;5099499;28;20407;-69
2024/01/25 02:22:08;;;;;;;12.73;2.20;;;6.40;96.00;;;;;;5100800;28;20073;-69
2024/01/25 02:24:34;;;;;;;13.23;2.45;;;6.50;97.70;;;;;;5100673;28;20016;-69
2024/01/25 02:27:00;;;;;;;13.13;2.50;;;;;;;;;;5100815;28;20079;-70
2024/01/25 02:29:25;;;;;;;15.95;3.00;;;6.60;92.10;;;;;;5100673;28;20028;-69
2024/01/25 02:31:51;;;;;;;14.40;3.50;;;6.60;97.10;;;;;;5100587;28;20052;-69
2024/01/25 02:34:16;;;;;;;9.95;2.63;;;6.60;93.90;;;;;;5100701;28;20127;-69
2024/01/25 02:36:42;;;;;;;12.35;3.60;;;;;;;;;;5101740;28;20028;-69
2024/01/25 02:39:08;;;;;;;11.80;2.63;;;;;;;;;;5101433;28;20020;-68
2024/01/25 02:41:34;;;;;;;11.90;1.75;;;6.60;96.60;;;;;;5100653;28;20197;-70
2024/01/25 02:44:00;;;;;;;11.65;2.22;;;6.60;96.70;;;;;;5100713;28;20049;-70
2024/01/25 02:46:26;;;;;;;10.18;2.95;;;;;;;;;;5103743;28;20042;-70
2024/01/25 02:48:52;;;;;;;15.23;2.42;;;6.80;96.50;;;;;;5104393;28;20595;-70
2024/01/25 02:51:18;;;;;;;11.23;1.90;;;;;;;;;;5104662;28;20065;-69
2024/01/25 02:53:44;;;;;;;14.15;2.42;;;6.60;96.10;;;;;;5099723;28;20201;-68
2024/01/25 02:56:09;;;;;;;8.02;1.77;;;6.70;96.10;;;;;;5098963;28;20027;-69
2024/01/25 02:58:35;;;;;;;9.23;2.08;;;;;;;;;;5104074;28;20239;-69
2024/01/25 03:01:01;;;;;;;12.05;2.10;;;6.90;95.90;;;;;;5103795;28;20028;-70
2024/01/25 03:03:27;;;;;;;9.68;2.05;;;7.00;95.90;;;;;;5103829;28;20016;-71
2024/01/25 03:05:52;;;;;;;10.98;1.40;;;7.00;95.70;;;;;;5103732;28;20035;-68
2024/01/25 03:08:18;;;;;;;15.93;3.83;;;;;;;;;;5104055;28;20095;-68
2024/01/25 03:10:44;;;;;;;5.03;2.20;;;7.10;95.90;;;;;;5104071;28;20020;-68
2024/01/25 03:13:10;;;;;;;8.32;1.90;;;7.20;96.00;;;;;;5103910;28;20020;-68
2024/01/25 03:15:36;;;;;;;4.97;1.25;;;;;;;;;;5103819;28;20245;-67
2024/01/25 03:18:02;;;;;;;10.95;2.40;;;7.30;96.30;;;;;;5103760;28;20334;-68
2024/01/25 03:20:27;;;;;;;13.60;3.28;;;7.20;96.40;;;;;;5103437;28;20020;-68
2024/01/25 03:22:54;;;;;;;17.17;3.45;;;;;;;;;;5102181;28;20397;-68
2024/01/25 03:25:20;;;;;;;8.55;1.80;;;7.20;96.40;;;;;;5103723;28;20091;-68
2024/01/25 03:27:46;;;;;;;12.60;2.17;;;;;;;;;;5103579;28;20365;-68
2024/01/25 03:30:11;;;;;;;9.55;2.33;;;7.40;96.50;;;;;;5103244;28;20307;-69
2024/01/25 03:32:37;;;;;;;9.00;2.25;;;7.40;96.60;;;;;;5103239;28;20031;-68
2024/01/25 03:35:03;;;;;;;12.35;2.65;;;7.40;96.50;;;;;;5103193;28;20016;-69
2024/01/25 03:37:29;;;;;;;12.30;3.30;;;;;;;;;;5103102;28;20039;-69
2024/01/25 03:39:55;;;;;;;13.65;2.53;;;;;;;;;;5103119;28;20038;-68
2024/01/25 03:42:21;;;;;;;11.30;2.83;;;7.50;96.20;;;;;;5103083;28;20039;-68
2024/01/25 03:44:47;;;;;;;12.07;2.22;;;7.50;96.50;;;;;;5103191;28;20012;-68
2024/01/25 03:47:12;;;;;;;7.50;1.58;;;7.50;96.50;;;;;;5102949;28;20024;-68
2024/01/25 03:49:38;;;;;;;15.20;2.65;;;7.60;96.20;;;;;;5103014;28;20102;-68
2024/01/25 03:52:05;;;;;;;26.65;3.28;;;7.60;85.40;;;;;;5103469;28;20031;-68
2024/01/25 03:54:30;;;;;;;11.93;1.92;;;7.60;96.00;;;;;;5103145;28;20024;-68
2024/01/25 03:56:56;;;;;;;14.32;2.08;;;7.60;94.20;;;;;;5102981;28;20038;-68
2024/01/25 03:59:22;;;;;;;10.63;2.55;;;7.70;95.50;;;;;;5102590;28;20020;-68
2024/01/25 04:01:48;;;;;;;7.30;1.63;;;7.70;95.30;;;;;;5102745;28;20239;-68
2024/01/25 04:04:17;;;;;;;7.65;1.83;;;7.70;94.30;;;;;;5102776;28;20027;-68
2024/01/25 04:06:44;;;;;;;13.98;2.17;;;7.70;94.70;;;;;;5102922;28;20188;-68
2024/01/25 04:09:10;;;;;;;8.68;1.48;;;;;;;;;;5102583;28;20024;-69
2024/01/25 04:11:39;;;;;;;12.82;2.03;;;7.70;81.70;;;;;;5102532;28;20079;-69
2024/01/25 04:14:05;;;;;;;8.43;1.88;;;;;;;;;;5102878;28;20110;-69
2024/01/25 04:16:31;;;;;;;14.35;2.05;;;7.50;94.50;;;;;;5102632;28;20024;-68
2024/01/25 04:18:57;;;;;;;19.27;3.40;;;7.60;94.20;;;;;;5102594;28;20034;-67
2024/01/25 04:21:23;;;;;;;10.93;2.53;;;7.70;89.30;;;;;;5102089;28;20335;-68
2024/01/25 04:23:49;;;;;;;15.00;2.45;;;;;;;;;;5102601;28;20016;-69
2024/01/25 04:26:16;;;;;;;8.50;2.33;;;7.50;94.80;;;;;;5102549;28;20323;-70
2024/01/25 04:28:42;;;;;;;13.52;2.10;;;7.30;94.60;;;;;;5102203;28;20027;-69
2024/01/25 04:31:07;;;;;;;9.93;2.30;;;7.60;94.80;;;;;;5102012;28;20086;-68
2024/01/25 04:33:35;;;;;;;8.45;2.33;;;;;;;;;;5102052;28;20397;-68
2024/01/25 04:36:01;;;;;;;8.38;2.28;;;;;;;;;;5102229;28;20069;-71
2024/01/25 04:38:26;;;;;;;11.82;2.83;;;7.20;93.50;;;;;;5102093;28;20016;-69
2024/01/25 04:40:52;;;;;;;20.15;3.38;;;7.20;95.40;;;;;;5101886;28;20037;-69
2024/01/25 04:43:18;;;;;;;10.95;2.80;;;7.00;95.60;;;;;;5101974;28;20037;-69
2024/01/25 04:45:43;;;;;;;14.90;2.83;;;7.10;95.90;;;;;;5101987;28;20031;-69
2024/01/25 04:48:09;;;;;;;17.23;4.85;;;7.10;96.00;;;;;;5101918;28;20027;-68
2024/01/25 04:50:34;;;;;;;9.57;2.15;;;7.10;91.10;;;;;;5101842;28;20324;-68
2024/01/25 04:53:02;;;;;;;11.30;3.92;;;7.10;96.20;;;;;;5102047;28;20039;-67
2024/01/25 04:55:28;;;;;;;11.13;2.55;;;7.00;96.30;;;;;;5088798;28;20017;-69
2024/01/25 04:57:53;;;;;;;16.70;2.83;;;6.90;96.50;;;;;;5101695;28;20016;-70
2024/01/25 05:00:22;;;;;;;9.73;1.85;;;6.70;96.50;;;;;;5101740;28;20045;-70
2024/01/25 05:02:48;;;;;;;15.63;3.42;;;6.90;94.60;;;;;;5101571;28;20087;-70
2024/01/25 05:05:14;;;;;;;13.10;2.63;;;6.80;96.90;;;;;;5101796;28;20085;-70
2024/01/25 05:07:40;;;;;;;13.73;2.38;;;6.80;96.90;;;;;;5101048;28;20312;-70
2024/01/25 05:10:07;;;;;;;13.18;1.67;;;;;;;;;;5101825;28;20031;-70
2024/01/25 05:12:33;;;;;;;18.45;2.72;;;6.80;97.00;;;;;;5101895;28;20054;-70
2024/01/25 05:14:59;;;;;;;20.98;3.92;;;;;;;;;;5071336;28;20304;-69
2024/01/25 05:17:25;;;;;;;10.63;2.10;;;6.70;97.60;;;;;;5079767;28;20021;-70
2024/01/25 05:19:51;;;;;;;10.40;2.17;;;6.70;94.60;;;;;;5063730;28;20020;-70
2024/01/25 05:22:17;;;;;;;10.40;2.78;;;;;;;;;;5061156;28;20094;-70
2024/01/25 05:24:42;;;;;;;12.18;2.45;;;6.60;97.50;;;;;;5060829;28;20328;-69
2024/01/25 05:27:08;;;;;;;11.55;2.75;;;;;;;;;;5067187;28;20024;-69
2024/01/25 05:29:34;;;;;;;16.55;3.20;;;6.60;98.10;;;;;;5080195;28;20048;-69
2024/01/25 05:32:00;;;;;;;13.45;2.85;;;6.50;98.20;;;;;;5080992;28;20060;-69
2024/01/25 05:34:25;;;;;;;10.80;2.38;;;6.60;98.40;;;;;;5080941;28;20067;-69
2024/01/25 05:36:51;;;;;;;11.07;2.60;;;6.60;98.60;;;;;;5073852;28;20116;-67
2024/01/25 05:39:17;;;;;;;16.38;2.47;;;;;;;;;;5060953;28;20025;-66
2024/01/25 05:41:46;;;;;;;14.07;2.10;;;6.40;98.70;;;;;;5074238;28;20263;-67
2024/01/25 05:44:12;;;;;;;23.67;5.05;;;6.40;90.80;;;;;;5079220;28;20052;-67
2024/01/25 05:46:38;;;;;;;20.20;3.15;;;;;;;;;;5080708;28;20075;-67
2024/01/25 05:49:04;;;;;;;14.63;2.47;;;6.40;99.40;;;;;;5081162;28;20085;-69
2024/01/25 05:51:30;;;;;;;10.27;2.38;;;6.30;99.40;;;;;;5080942;28;20020;-70
2024/01/25 05:53:56;;;;;;;13.18;4.70;;;6.50;99.50;;;;;;5081063;28;20029;-70
2024/01/25 05:56:22;;;;;;;13.35;2.40;;;;;;;;;;5080951;28;20028;-70
2024/01/25 05:58:48;;;;;;;9.25;2.95;;;;;;;;;;5080628;28;20055;-70
2024/01/25 06:01:14;;;;;;;15.95;3.25;;;6.50;99.30;;;;;;5079731;28;20024;-70
2024/01/25 06:03:40;;;;;;;9.80;2.67;;;;;;;;;;5059692;28;20059;-70
2024/01/25 06:06:07;;;;;;;13.90;3.35;;;6.50;99.30;;;;;;5060141;28;20329;-70
2024/01/25 06:08:34;;;;;;;14.60;2.83;;;6.50;91.20;;;;;;5059866;28;20092;-70
2024/01/25 06:11:00;;;;;;;13.40;3.15;;;6.60;99.40;;;;;;5060059;28;20083;-70
2024/01/25 06:13:25;;;;;;;9.18;3.35;;;6.60;99.50;;;;;;5060612;28;20032;-70
2024/01/25 06:15:51;;;;;;;16.38;3.47;;;6.60;99.50;;;;;;5060551;28;20020;-71
2024/01/25 06:18:17;;;;;;;14.23;2.97;;;6.70;99.50;;;;;;5060775;28;20083;-70
2024/01/25 06:20:43;;;;;;;16.42;3.67;;;6.60;99.50;;;;;;5076577;28;20047;-72
2024/01/25 06:23:09;;;;;;;12.18;3.15;;;6.50;95.20;;;;;;5084405;28;20024;-72
2024/01/25 06:25:36;;;;;;;13.02;3.65;;;6.50;99.70;;;;;;5084107;28;20267;-69
2024/01/25 06:28:02;;;;;;;8.43;2.30;;;6.60;99.80;;;;;;5084029;28;20020;-69
2024/01/25 06:30:28;;;;;;;12.30;2.67;;;;;;;;;;5082611;28;20048;-69
2024/01/25 06:32:54;;;;;;;10.50;2.42;;;6.60;97.90;;;;;;5082132;28;20088;-66
2024/01/25 06:35:19;;;;;;;3.88;1.55;;;6.50;99.40;;;;;;5075544;28;20074;-68
2024/01/25 06:37:45;;;;;;;14.35;1.50;;;7.10;99.10;;;;;;5084502;28;20083;-68
2024/01/25 06:40:11;;;;;;;6.47;1.77;;;;;;;;;;5084272;28;20040;-68
2024/01/25 06:42:37;;;;;;;13.57;1.77;;;7.10;97.90;;;;;;5084627;28;20099;-70
2024/01/25 06:45:03;;;;;;;11.38;1.40;;;7.20;97.20;;;;;;5084704;28;20098;-69
2024/01/25 06:47:29;;;;;;;5.35;2.10;;;7.10;92.60;;;;;;5084541;28;20032;-68
2024/01/25 06:49:54;;;;;;;13.25;1.77;;;7.50;90.00;;;;;;5083932;28;20089;-70
2024/01/25 06:52:20;;;;;;;14.40;2.30;;;7.40;95.30;;;;;;5083979;28;20031;-70
2024/01/25 06:54:46;;;;;;;12.50;2.30;;;7.50;94.60;;;;;;5084146;28;20062;-70
2024/01/25 06:57:14;;;;;;;11.80;2.63;;;;;;;;;;5080934;28;20028;-70
2024/01/25 06:59:40;;;;;;;12.45;1.98;;;;;;;;;;5083682;28;20028;-70
2024/01/25 07:02:06;;;;;;;6.85;1.98;;;;;;;;;;5083599;28;20055;-71
2024/01/25 07:04:32;;;;;;;9.18;2.47;;;7.40;93.00;;;;;;5083700;28;20034;-71
2024/01/25 07:06:59;;;;;;;9.90;1.85;;;7.70;93.00;;;;;;5083501;28;20025;-71
2024/01/25 07:09:25;;;;;;;10.13;2.05;;;7.70;92.80;;;;;;5082477;28;20024;-70
2024/01/25 07:11:51;;;;;;;6.05;2.05;;;7.70;92.60;;;;;;5083493;28;20069;-70
2024/01/25 07:14:17;;;;;;;12.32;2.05;;;7.80;90.60;;;;;;5083743;28;20016;-70
2024/01/25 07:16:42;;;;;;;8.95;1.73;;;7.80;91.90;;;;;;5083556;28;20100;-70
2024/01/25 07:19:08;;;;;;;9.32;2.55;;;7.80;91.90;;;;;;5083812;28;20016;-68
2024/01/25 07:21:34;;;;;;;8.38;2.05;;;7.80;91.90;;;;;;5083364;28;20327;-68
2024/01/25 07:24:02;;;;;;;9.80;2.15;;;7.70;75.70;;;;;;5083359;28;20021;-69
2024/01/25 07:26:28;;;;;;;9.10;2.17;;;7.70;91.80;;;;;;5083439;28;20020;-69
2024/01/25 07:28:57;;;;;;;12.70;1.65;;;;;;;;;;5083469;28;20031;-68
2024/01/25 07:31:25;;;;;;;3.78;1.58;;;7.70;78.50;;;;;;5082598;28;20032;-69
2024/01/25 07:33:51;;;;;;;4.65;1.45;;;7.80;92.00;;;;;;5083139;28;20028;-69
2024/01/25 07:36:18;;;;;;;10.57;2.03;;;7.70;92.10;;;;;;5082989;28;20031;-69
2024/01/25 07:38:44;;;;;;;7.95;2.40;;;7.70;91.80;;;;;;5083093;28;20032;-69
2024/01/25 07:41:11;;;;;;;8.05;1.77;;;7.80;91.90;;;;;;5083092;28;20033;-71
2024/01/25 07:43:36;;;;;;;15.65;2.63;;;7.90;91.60;;;;;;5082916;28;20012;-70
2024/01/25 07:46:02;;;;;;;11.85;1.70;;;7.90;91.30;;;;;;5083176;28;20094;-70
2024/01/25 07:48:28;;;;;;;9.55;2.15;;;8.00;91.10;;;;;;5083155;28;20019;-70
2024/01/25 07:50:54;;;;;;;11.27;1.85;;;8.20;82.20;;;;;;5082977;28;20204;-70
2024/01/25 07:53:19;;;;;;;9.63;1.83;;;8.30;89.10;;;;;;5083571;28;20074;-71
2024/01/25 07:55:45;;;;;;;8.43;1.23;;;;;;;;;;5083022;28;20270;-72
2024/01/25 07:58:11;;;;;;;10.68;2.03;;;8.50;74.60;;;;;;5082906;28;20081;-71
2024/01/25 08:00:37;;;;;;;9.75;1.80;;;8.60;87.00;;;;;;5082640;28;20076;-71
2024/01/25 08:03:03;;;;;;;9.50;1.95;;;8.60;86.70;;;;;;5082723;28;20035;-71
2024/01/25 08:05:29;;;;;;;3.35;1.45;;;8.60;86.20;;;;;;5082866;28;20301;-70
2024/01/25 08:07:54;;;;;;;11.15;2.50;;;8.70;86.00;;;;;;5082972;28;20104;-70
2024/01/25 08:10:20;;;;;;;13.65;2.38;;;8.70;86.50;;;;;;5082464;28;20324;-71
2024/01/25 08:12:47;;;;;;;9.52;2.47;;;;;;;;;;5082504;28;20032;-71
2024/01/25 08:15:14;;;;;;;14.90;2.97;;;9.10;86.40;;;;;;5082509;28;20012;-70
2024/01/25 08:17:40;;;;;;;22.48;4.07;;;;;;;;;;5081568;28;20061;-70
2024/01/25 08:20:06;;;;;;;9.63;2.35;;;9.00;68.20;;;;;;5070755;28;20332;-71
2024/01/25 08:22:33;;;;;;;2.95;1.08;;;9.10;86.00;;;;;;5082353;28;20044;-70
2024/01/25 08:24:58;;;;;;;7.60;2.20;;;9.10;85.40;;;;;;5069844;28;20017;-69
2024/01/25 08:27:24;;;;;;;8.05;1.63;;;9.20;85.20;;;;;;5062377;28;20069;-70
2024/01/25 08:29:50;;;;;;;8.95;1.63;;;9.30;84.20;;;;;;5062267;28;20047;-71
2024/01/25 08:32:16;;;;;;;10.43;2.08;;;9.30;84.10;;;;;;5061855;28;20244;-70
2024/01/25 08:34:41;;;;;;;6.90;1.98;;;9.40;68.70;;;;;;5062055;28;20033;-70
2024/01/25 08:37:07;;;;;;;9.25;2.03;;;9.40;73.30;;;;;;5073829;28;20043;-70
2024/01/25 08:39:33;;;;;;;4.57;1.17;;;;;;;;;;5081733;28;20031;-70
2024/01/25 08:42:02;;;;;;;6.05;2.10;;;9.50;84.20;;;;;;5081492;28;20040;-71
2024/01/25 08:44:28;;;;;;;11.13;2.17;;;9.60;80.40;;;;;;5080299;28;20024;-71
2024/01/25 08:46:53;;;;;;;9.45;2.42;;;9.70;83.80;;;;;;5080722;28;20050;-70
2024/01/25 08:49:19;;;;;;;6.55;1.38;;;9.60;82.60;;;;;;5081661;28;20035;-70
2024/01/25 08:51:45;;;;;;;11.57;1.55;;;9.50;82.70;;;;;;5081708;28;20039;-70
2024/01/25 08:54:10;;;;;;;17.20;3.42;;;9.30;83.00;;;;;;5081701;28;20089;-71
2024/01/25 08:56:37;;;;;;;1.58;0.88;;;9.40;83.60;;;;;;5081922;28;20032;-70
2024/01/25 08:59:03;;;;;;;6.63;1.67;;;9.60;76.50;;;;;;5081840;28;20107;-70
2024/01/25 09:01:28;;;;;;;3.80;1.25;;;9.50;83.80;;;;;;5081712;28;20033;-70
2024/01/25 09:03:54;;;;;;;8.82;1.77;;;9.40;83.50;;;;;;5081239;28;20196;-70
2024/01/25 09:06:20;;;;;;;13.38;2.67;;;9.50;74.50;;;;;;5081317;28;20320;-71
2024/01/25 09:08:45;;;;;;;4.78;2.03;;;9.60;83.50;;;;;;5081704;28;20021;-71
2024/01/25 09:11:11;;;;;;;6.50;1.48;;;9.40;83.20;;;;;;5081328;28;20024;-71
2024/01/25 09:13:37;;;;;;;8.43;2.40;;;9.90;83.90;;;;;;5080877;28;20028;-71
2024/01/25 09:16:02;;;;;;;12.82;2.00;;;9.30;70.70;;;;;;5080654;28;20205;-71
2024/01/25 09:18:28;;;;;;;10.95;1.63;;;9.30;77.90;;;;;;5081477;28;20062;-72
2024/01/25 09:20:54;;;;;;;6.25;1.58;;;9.20;84.20;;;;;;5080266;28;20103;-71
2024/01/25 09:23:20;;;;;;;9.05;2.30;;;9.00;72.60;;;;;;5081567;28;20084;-71
2024/01/25 09:25:46;;;;;;;4.80;1.35;;;9.10;85.30;;;;;;5081326;28;20016;-73
2024/01/25 09:28:11;;;;;;;8.60;1.65;;;8.80;86.50;;;;;;5081512;28;20028;-71
2024/01/25 09:30:43;;;;;;;7.22;2.08;;;8.90;87.10;;;;;;5081324;28;20040;-71
2024/01/25 09:33:09;;;;;;;10.45;1.77;;;8.80;74.60;;;;;;5080178;28;20201;-69
2024/01/25 09:35:35;;;;;;;11.43;3.70;;;;;;;;;;5081468;28;20043;-69
2024/01/25 09:38:00;;;;;;;19.98;3.15;;;8.80;87.80;;;;;;5081134;28;20309;-70
2024/01/25 09:40:26;;;;;;;15.48;2.83;;;8.80;87.60;;;;;;5081120;28;20046;-71
2024/01/25 09:42:52;;;;;;;5.00;1.70;;;9.00;68.30;;;;;;5081097;28;20032;-70
2024/01/25 09:45:19;;;;;;;9.32;2.13;;;9.10;67.60;;;;;;5081137;28;20044;-68
2024/01/25 09:47:48;;;;;;;10.45;2.13;;;9.40;84.20;;;;;;5080916;28;20028;-70
2024/01/25 09:50:14;;;;;;;5.07;1.60;;;;;;;;;;5081269;28;20031;-70
2024/01/25 09:52:47;;;;;;;17.23;2.45;;;9.70;83.10;;;;;;5081047;28;20182;-70
2024/01/25 09:55:14;;;;;;;10.05;2.63;;;9.60;67.80;;;;;;5084153;28;20040;-70
2024/01/25 09:57:42;;;;;;;10.65;2.00;;;9.60;78.40;;;;;;5085265;28;20020;-71
2024/01/25 10:00:11;;;;;;;24.55;2.08;;;10.00;82.20;;;;;;5085225;28;20086;-70
2024/01/25 10:02:38;;;;;;;5.95;2.40;;;9.60;82.40;;;;;;5084899;28;20098;-71
2024/01/25 10:05:04;;;;;;;9.95;2.40;;;9.80;77.30;;;;;;5084767;28;20029;-71
2024/01/25 10:07:43;;;;;;;8.80;2.45;;;9.80;80.10;;;;;;5084455;28;20119;-71
2024/01/25 10:10:10;;;;;;;9.20;2.35;;;10.00;66.80;;;;;;5084787;28;20028;-63
2024/01/25 10:12:36;;;;;;;6.40;1.80;;;10.40;84.00;;;;;;5081387;28;20021;-62
2024/01/25 10:15:04;;;;;;;9.00;2.17;;;10.30;82.60;;;;;;5064365;28;20035;-62
2024/01/25 10:17:30;;;;;;;3.70;1.48;;;10.60;65.70;;;;;;5064560;28;20075;-63
2024/01/25 10:19:56;;;;;;;7.32;1.73;;;10.70;80.40;;;;;;5063731;28;20228;-70
2024/01/25 10:22:22;;;;;;;14.00;2.92;;;10.90;81.70;;;;;;5080801;28;20455;-71
2024/01/25 10:24:50;;;;;;;13.25;2.50;;;10.70;72.50;;;;;;5084236;28;20083;-70
2024/01/25 10:27:16;;;;;;;9.32;1.80;;;10.90;76.90;;;;;;5084374;28;20020;-70
2024/01/25 10:29:42;;;;;;;4.65;1.85;;;10.80;76.90;;;;;;5084617;28;20024;-71
2024/01/25 10:32:09;;;;;;;10.60;2.30;;;10.80;76.80;;;;;;5083838;28;20115;-70
2024/01/25 10:34:38;;;;;;;13.15;2.60;;;10.70;60.00;;;;;;5082746;28;20032;-70
2024/01/25 10:37:05;;;;;;;;;;;10.60;60.50;;;;;;5083316;28;20042;-70
2024/01/25 10:39:32;;;;;;;6.88;2.38;;;10.60;77.60;;;;;;5083928;28;19964;-70
2024/01/25 10:41:59;;;;;;;12.85;2.97;;;10.50;77.30;;;;;;5084081;28;20032;-70
2024/01/25 10:44:25;;;;;;;12.02;2.50;;;;;;;;;;5082848;28;20028;-70
2024/01/25 10:46:51;;;;;;;8.85;2.05;;;;;;;;;;5083938;28;20024;-71
2024/01/25 10:49:18;;;;;;;10.82;2.25;;;10.60;59.70;;;;;;5083811;28;20030;-70
2024/01/25 10:51:45;;;;;;;11.18;2.50;;;10.70;62.40;;;;;;5083953;28;20027;-70
2024/01/25 10:54:14;;;;;;;8.40;1.85;;;10.70;59.80;;;;;;5083792;28;20048;-69
2024/01/25 10:56:41;;;;;;;9.05;2.55;;;11.00;76.80;;;;;;5083593;28;20020;-69
2024/01/25 10:59:08;;;;;;;12.00;2.13;;;10.70;67.60;;;;;;5083458;28;20032;-70
2024/01/25 11:01:35;;;;;;;11.88;2.00;;;10.70;76.70;;;;;;5075640;28;20044;-70
2024/01/25 11:04:01;;;;;;;11.07;1.95;;;;;;;;;;5073186;28;20025;-70
2024/01/25 11:06:27;;;;;;;11.45;2.03;;;10.40;61.90;;;;;;5071547;28;20055;-70
2024/01/25 11:09:17;;;;;;;11.60;2.50;;;10.60;76.70;;;;;;5083370;28;20013;-70
2024/01/25 11:11:45;;;;;;;8.77;2.17;;;10.60;59.70;;;;;;5083435;28;20256;-69
2024/01/25 11:14:16;;;;;;;9.55;2.50;;;10.70;59.70;;;;;;5082229;28;20024;-70
2024/01/25 11:16:47;;;;;;;9.55;3.17;;;10.70;59.60;;;;;;5079523;28;20075;-70
2024/01/25 11:19:21;;;;;;;9.35;3.03;;;10.80;74.40;;;;;;5083051;28;20027;-70
2024/01/25 11:21:48;;;;;;;11.25;3.33;;;10.60;65.80;;;;;;5082410;28;20028;-70
2024/01/25 11:24:21;;;;;;;7.40;1.65;;;10.50;73.00;;;;;;5083185;28;20028;-70
2024/01/25 11:26:47;;;;;;;6.00;1.52;;;10.50;76.30;;;;;;5082871;28;20017;-69
2024/01/25 11:29:17;;;;;;;10.05;1.92;;;10.70;76.20;;;;;;5082289;28;20335;-69
2024/01/25 11:31:46;;;;;;;10.95;2.28;;;10.40;75.20;;;;;;5082588;28;20059;-70
2024/01/25 11:34:13;;;;;;;16.30;2.65;;;10.40;75.80;;;;;;5082859;28;20038;-69
2024/01/25 11:36:39;;;;;;;6.53;1.70;;;10.40;71.20;;;;;;5082425;28;20098;-70
2024/01/25 11:39:06;;;;;;;10.15;2.72;;;10.50;75.40;;;;;;5082235;28;20020;-70
2024/01/25 11:41:32;;;;;;;8.52;2.53;;;;;;;;;;5082504;28;20040;-69
2024/01/25 11:43:58;;;;;;;7.03;1.42;;;10.40;68.50;;;;;;5081389;28;20338;-70
2024/01/25 11:46:24;;;;;;;13.07;2.25;;;10.50;74.90;;;;;;5082379;28;20020;-69
2024/01/25 11:48:50;;;;;;;10.43;2.10;;;10.60;74.90;;;;;;5082599;28;20021;-70
2024/01/25 11:51:16;;;;;;;10.85;1.55;;;;;;;;;;5082748;28;20078;-70
2024/01/25 11:53:42;;;;;;;9.98;1.70;;;10.60;57.50;;;;;;5082500;28;20100;-70
2024/01/25 11:56:11;;;;;;;10.55;2.15;;;10.60;71.60;;;;;;5082185;28;20051;-70
2024/01/25 11:58:38;;;;;;;4.50;1.55;;;10.70;57.20;;;;;;5082321;28;20028;-70
2024/01/25 12:01:07;;;;;;;9.02;2.10;;;10.80;72.50;;;;;;5081884;28;20328;-70
2024/01/25 12:03:35;;;;;;;;;;;10.80;57.10;;;;;;5082742;28;20020;-69
2024/01/25 12:06:01;;;;;;;10.60;2.25;;;10.90;71.90;;;;;;5080614;28;19911;-70
2024/01/25 12:08:27;;;;;;;5.40;2.08;;;;;;;;;;5082009;28;20051;-70
2024/01/25 12:11:06;;;;;;;7.97;2.65;;;10.90;64.50;;;;;;5081829;28;20039;-70
2024/01/25 12:13:33;;;;;;;5.05;1.50;;;10.70;64.40;;;;;;5081990;28;20058;-70
2024/01/25 12:16:00;;;;;;;9.05;2.22;;;10.70;71.50;;;;;;5081849;28;20304;-69
2024/01/25 12:18:26;;;;;;;9.85;2.88;;;10.90;71.40;;;;;;5082033;28;20021;-69
2024/01/25 12:20:52;;;;;;;17.73;2.67;;;;;;;;;;5081437;28;20024;-68
2024/01/25 12:23:18;;;;;;;12.52;2.03;;;;;;;;;;5081736;28;20032;-69
2024/01/25 12:25:45;;;;;;;4.28;1.75;;;11.00;54.80;;;;;;5081578;28;20096;-68
2024/01/25 12:28:11;;;;;;;10.60;2.05;;;10.90;70.00;;;;;;5081722;28;20020;-69
2024/01/25 12:30:37;;;;;;;8.45;2.05;;;;;;;;;;5081441;28;20098;-68
2024/01/25 12:33:03;;;;;;;3.50;1.40;;;11.00;55.00;;;;;;5081960;28;20379;-71
2024/01/25 12:35:29;;;;;;;10.30;2.17;;;10.90;70.00;;;;;;5081861;28;20028;-70
2024/01/25 12:37:55;;;;;;;10.95;1.67;;;11.00;69.30;;;;;;5081941;28;20016;-71
2024/01/25 12:40:20;;;;;;;10.23;2.60;;;11.00;69.40;;;;;;5081676;28;20304;-70
2024/01/25 12:42:46;;;;;;;10.82;2.00;;;;;;;;;;5081739;28;20032;-70
2024/01/25 12:45:12;;;;;;;6.45;2.25;;;;;;;;;;5081660;28;20344;-71
2024/01/25 12:47:41;;;;;;;3.03;1.58;;;;;;;;;;5081667;28;20036;-70
2024/01/25 12:50:07;;;;;;;;;;;11.30;53.70;;;;;;5082065;28;20016;-71
2024/01/25 12:52:33;;;;;;;7.70;1.38;;;12.20;63.80;;;;;;5081774;28;19951;-71
2024/01/25 12:54:58;;;;;;;11.27;2.72;;;12.60;52.50;;;;;;5081610;28;20319;-73
2024/01/25 12:57:24;;;;;;;5.93;1.83;;;13.00;52.80;;;;;;5081651;28;20296;-72
2024/01/25 12:59:50;;;;;;;8.30;2.35;;;13.90;51.00;;;;;;5081282;28;20079;-72
2024/01/25 13:02:16;;;;;;;8.85;2.08;;;14.50;49.00;;;;;;5081427;28;20033;-72